^^
Station Historical Data
Daily Summary for March 5, 2017 Units:  English    Metric   Both
« Previous Day
Next Day »
Daily Weekly Monthly Yearly Custom
  High: Low: Average:
Temperature: 38.2 °F 13.0 °F 24.5 °F
Dew Point: 12.3 °F -1.9 °F 3.1 °F
Humidity: 62 % 19 % 43 %
Wind Speed: 9.3 mph 0.0 mph 3 mph
Wind Gust: 16.1 mph - -
Wind:- - West
Pressure: 30.75 in 30.55 in -
Precipitation: 0.00 in    
Historical Graphs
 
 
Tabular Data for March 5, 2017
Time Temperature Dew Point Pressure Wind Wind Speed Wind Gust Humidity Rainfall Rate (Hourly) solar Conditions
00:00 15.4 °F 1.7 °F 30.69 in NNW 4.5 mph 9.2 mph 54 % 0.00 in 0.0 W/m2 CLR
00:06 15.3 °F 1.6 °F 30.70 in North 4.9 mph 5.0 mph 54 % 0.00 in 0.0 W/m2 CLR
00:11 15.3 °F 1.6 °F 30.70 in NNW 5.7 mph 9.2 mph 54 % 0.00 in 0.0 W/m2 CLR
00:16 15.3 °F 1.6 °F 30.70 in North 4.6 mph 10.4 mph 54 % 0.00 in 0.0 W/m2 CLR
00:21 15.3 °F 1.6 °F 30.69 in North 4.0 mph 5.8 mph 54 % 0.00 in 0.0 W/m2 CLR
00:26 15.2 °F 1.5 °F 30.70 in NNW 5.0 mph 11.5 mph 54 % 0.00 in 0.0 W/m2 CLR
00:31 15.1 °F 1.8 °F 30.70 in NNW 2.1 mph 4.0 mph 55 % 0.00 in 0.0 W/m2 CLR
00:36 15.0 °F 1.7 °F 30.70 in North 4.0 mph 8.1 mph 55 % 0.00 in 0.0 W/m2 CLR
00:41 14.9 °F 1.6 °F 30.70 in North 1.6 mph 3.5 mph 55 % 0.00 in 0.0 W/m2 CLR
00:46 14.8 °F 1.5 °F 30.70 in NNW 1.6 mph 3.5 mph 55 % 0.00 in 0.0 W/m2 CLR
00:51 14.7 °F 1.4 °F 30.70 in North 6.0 mph 11.5 mph 55 % 0.00 in 0.0 W/m2 CLR
00:56 14.7 °F 1.4 °F 30.70 in NNW 7.5 mph 12.7 mph 55 % 0.00 in 0.0 W/m2 CLR
01:01 14.6 °F 0.9 °F 30.70 in North 0.6 mph 4.6 mph 54 % 0.00 in 0.0 W/m2 CLR
01:06 14.5 °F 0.9 °F 30.70 in North 9.3 mph 13.8 mph 54 % 0.00 in 0.0 W/m2 CLR
01:11 14.4 °F 1.2 °F 30.71 in North 8.0 mph 8.1 mph 55 % 0.00 in 0.0 W/m2 CLR
01:16 14.4 °F 1.2 °F 30.70 in WNW 6.1 mph 11.0 mph 55 % 0.00 in 0.0 W/m2 CLR
01:21 14.3 °F 1.1 °F 30.70 in NNW 2.3 mph 5.8 mph 55 % 0.00 in 0.0 W/m2 CLR
01:26 14.3 °F 1.4 °F 30.71 in NW 5.6 mph 9.2 mph 56 % 0.00 in 0.0 W/m2 CLR
01:31 14.2 °F 1.4 °F 30.71 in North 4.6 mph 9.2 mph 56 % 0.00 in 0.0 W/m2 CLR
01:36 14.1 °F 1.3 °F 30.71 in NNW 3.0 mph 4.6 mph 56 % 0.00 in 0.0 W/m2 CLR
01:41 14.0 °F 1.2 °F 30.71 in NNW 4.3 mph 8.1 mph 56 % 0.00 in 0.0 W/m2 CLR
01:46 13.9 °F 1.5 °F 30.72 in North 4.4 mph 5.0 mph 57 % 0.00 in 0.0 W/m2 CLR
01:51 13.9 °F 1.5 °F 30.72 in NNW 2.4 mph 4.6 mph 57 % 0.00 in 0.0 W/m2 CLR
01:56 13.9 °F 1.5 °F 30.72 in North 4.8 mph 6.0 mph 57 % 0.00 in 0.0 W/m2 CLR
02:01 13.8 °F 1.4 °F 30.71 in North 2.0 mph 8.1 mph 57 % 0.00 in 0.0 W/m2 CLR
02:06 13.8 °F 1.4 °F 30.72 in NNW 1.7 mph 4.6 mph 57 % 0.00 in 0.0 W/m2 CLR
02:11 13.7 °F 1.6 °F 30.72 in NNW 1.3 mph 5.0 mph 58 % 0.00 in 0.0 W/m2 CLR
02:16 13.7 °F 1.6 °F 30.71 in NNW 1.3 mph 4.6 mph 58 % 0.00 in 0.0 W/m2 CLR
02:21 13.7 °F 1.6 °F 30.72 in NW 2.1 mph 3.5 mph 58 % 0.00 in 0.0 W/m2 CLR
02:26 13.6 °F 1.5 °F 30.72 in NW 1.3 mph 3.5 mph 58 % 0.00 in 0.0 W/m2 CLR
02:31 13.5 °F 1.8 °F 30.72 in NW 1.5 mph 3.5 mph 59 % 0.00 in 0.0 W/m2 CLR
02:36 13.5 °F 1.8 °F 30.72 in NW 1.1 mph 3.5 mph 59 % 0.00 in 0.0 W/m2 CLR
02:41 13.5 °F 1.8 °F 30.72 in Calm     59 % 0.00 in 0.0 W/m2 CLR
02:46 13.4 °F 1.7 °F 30.72 in NW 2.1 mph 3.5 mph 59 % 0.00 in 0.0 W/m2 CLR
02:51 13.4 °F 1.7 °F 30.72 in NW 0.3 mph 1.2 mph 59 % 0.00 in 0.0 W/m2 CLR
02:56 13.3 °F 1.6 °F 30.72 in Calm     59 % 0.00 in 0.0 W/m2 CLR
03:01 13.2 °F 1.5 °F 30.72 in Calm     59 % 0.00 in 0.0 W/m2 CLR
03:06 13.3 °F 1.6 °F 30.72 in WNW 0.2 mph 2.3 mph 59 % 0.00 in 0.0 W/m2 CLR
03:11 13.2 °F 1.5 °F 30.72 in WNW 0.9 mph 3.5 mph 59 % 0.00 in 0.0 W/m2 CLR
03:16 13.2 °F 1.9 °F 30.72 in NW 2.8 mph 4.6 mph 60 % 0.00 in 0.0 W/m2 CLR
03:21 13.2 °F 1.9 °F 30.72 in NW 1.5 mph 3.5 mph 60 % 0.00 in 0.0 W/m2 CLR
03:26 13.2 °F 1.9 °F 30.72 in WNW 2.2 mph 3.5 mph 60 % 0.00 in 0.0 W/m2 CLR
03:31 13.1 °F 1.8 °F 30.72 in WNW 0.9 mph 2.3 mph 60 % 0.00 in 0.0 W/m2 CLR
03:36 13.0 °F 1.7 °F 30.72 in NW 4.5 mph 9.2 mph 60 % 0.00 in 0.0 W/m2 CLR
03:41 13.2 °F 1.9 °F 30.72 in NW 4.3 mph 8.1 mph 60 % 0.00 in 0.0 W/m2 CLR
03:46 13.3 °F 2.0 °F 30.72 in NW 3.6 mph 6.0 mph 60 % 0.00 in 0.0 W/m2 CLR
03:51 13.3 °F 2.0 °F 30.72 in WNW 3.1 mph 4.6 mph 60 % 0.00 in 0.0 W/m2 CLR
03:56 13.3 °F 2.0 °F 30.73 in NW 1.6 mph 4.0 mph 60 % 0.00 in 0.0 W/m2 CLR
04:01 13.4 °F 2.1 °F 30.73 in NW 6.4 mph 9.2 mph 60 % 0.00 in 0.0 W/m2 CLR
04:06 13.3 °F 1.6 °F 30.73 in NW 4.4 mph 8.1 mph 59 % 0.00 in 0.0 W/m2 CLR
04:11 13.3 °F 2.0 °F 30.73 in NW 3.6 mph 9.2 mph 60 % 0.00 in 0.0 W/m2 CLR
04:16 13.2 °F 1.9 °F 30.72 in NW 5.2 mph 9.0 mph 60 % 0.00 in 0.0 W/m2 CLR
04:21 13.1 °F 1.8 °F 30.72 in NW 8.1 mph 10.4 mph 60 % 0.00 in 0.0 W/m2 CLR
04:26 13.1 °F 2.2 °F 30.73 in NW 3.2 mph 5.8 mph 61 % 0.00 in 0.0 W/m2 CLR
04:31 13.2 °F 2.3 °F 30.73 in NW 8.9 mph 11.5 mph 61 % 0.00 in 0.0 W/m2 CLR
04:36 13.2 °F 2.3 °F 30.73 in NW 5.8 mph 9.2 mph 61 % 0.00 in 0.0 W/m2 CLR
04:41 13.3 °F 2.3 °F 30.73 in NW 6.0 mph 10.4 mph 61 % 0.00 in 0.0 W/m2 CLR
04:46 13.3 °F 2.3 °F 30.73 in NW 7.4 mph 10.4 mph 61 % 0.00 in 0.0 W/m2 CLR
04:51 13.3 °F 2.3 °F 30.73 in NW 6.1 mph 11.5 mph 61 % 0.00 in 0.0 W/m2 CLR
04:56 13.3 °F 2.3 °F 30.73 in NNW 3.6 mph 5.8 mph 61 % 0.00 in 0.0 W/m2 CLR
05:01 13.2 °F 2.3 °F 30.73 in NNW 7.4 mph 11.0 mph 61 % 0.00 in 0.0 W/m2 CLR
05:06 13.2 °F 2.3 °F 30.73 in NNW 5.7 mph 10.4 mph 61 % 0.00 in 0.0 W/m2 CLR
05:11 13.2 °F 2.3 °F 30.73 in NNW 4.4 mph 11.5 mph 61 % 0.00 in 0.0 W/m2 CLR
05:16 13.2 °F 2.3 °F 30.73 in NW 4.9 mph 6.0 mph 61 % 0.00 in 0.0 W/m2 CLR
05:21 13.3 °F 2.3 °F 30.73 in NNW 6.3 mph 10.4 mph 61 % 0.00 in 0.0 W/m2 CLR
05:26 13.2 °F 2.6 °F 30.73 in NW 2.5 mph 8.1 mph 62 % 0.00 in 0.0 W/m2 CLR
05:31 13.1 °F 2.5 °F 30.73 in NW 0.2 mph   62 % 0.00 in 0.0 W/m2 CLR
05:36 13.0 °F 2.4 °F 30.73 in NNW 1.0 mph 4.6 mph 62 % 0.00 in 0.0 W/m2 CLR
05:41 13.0 °F 2.4 °F 30.73 in NW 4.5 mph 9.2 mph 62 % 0.00 in 0.0 W/m2 CLR
05:46 13.1 °F 2.5 °F 30.73 in NNW 3.6 mph 5.8 mph 62 % 0.00 in 0.0 W/m2 CLR
05:51 13.2 °F 2.3 °F 30.73 in NNW 0.4 mph 3.5 mph 61 % 0.00 in 0.0 W/m2 CLR
05:56 13.1 °F 2.5 °F 30.73 in NNE 1.1 mph 3.5 mph 62 % 0.00 in 0.0 W/m2 CLR
06:01 13.1 °F 2.5 °F 30.73 in NNW 1.2 mph 3.5 mph 62 % 0.00 in 0.0 W/m2 CLR
06:06 13.1 °F 2.2 °F 30.73 in NNW 2.0 mph 4.0 mph 61 % 0.00 in 0.0 W/m2 CLR
06:11 13.1 °F 2.2 °F 30.72 in North 5.0 mph 5.8 mph 61 % 0.00 in 0.0 W/m2 CLR
06:16 13.2 °F 2.3 °F 30.73 in North 4.3 mph 8.0 mph 61 % 0.00 in 0.0 W/m2 CLR
06:21 13.2 °F 2.3 °F 30.73 in North 4.2 mph 9.2 mph 61 % 0.00 in 0.0 W/m2 CLR
06:26 13.3 °F 2.3 °F 30.73 in North 8.7 mph 11.5 mph 61 % 0.00 in 0.0 W/m2 CLR
06:31 13.3 °F 2.3 °F 30.73 in NNW 4.4 mph 8.1 mph 61 % 0.00 in 5.0 W/m2 CLR
06:36 13.3 °F 2.3 °F 30.73 in NNW 4.5 mph 9.0 mph 61 % 0.00 in 7.0 W/m2 CLR
06:41 13.3 °F 2.3 °F 30.73 in NNW 1.2 mph 8.1 mph 61 % 0.00 in 9.0 W/m2 CLR
06:46 13.3 °F 2.3 °F 30.73 in North 4.7 mph 8.1 mph 61 % 0.00 in 12.0 W/m2 CLR
06:51 13.3 °F 2.3 °F 30.73 in North 3.8 mph 4.6 mph 61 % 0.00 in 14.0 W/m2 CLR
06:57 13.4 °F 2.4 °F 30.73 in North 2.1 mph 4.6 mph 61 % 0.00 in 16.0 W/m2 CLR
07:02 13.5 °F 2.5 °F 30.73 in North 0.8 mph 6.9 mph 61 % 0.00 in 18.0 W/m2 CLR
07:07 13.8 °F 2.8 °F 30.73 in NNE 3.8 mph 5.8 mph 61 % 0.00 in 21.0 W/m2 CLR
07:12 14.0 °F 2.7 °F 30.73 in NNW 3.7 mph 4.6 mph 60 % 0.00 in 28.0 W/m2 CLR
07:17 14.3 °F 2.9 °F 30.73 in NNW 0.2 mph 5.8 mph 60 % 0.00 in 32.0 W/m2 SCT
07:22 14.6 °F 2.9 °F 30.73 in NW 4.9 mph 8.0 mph 59 % 0.00 in 32.0 W/m2 SCT
07:27 14.9 °F 2.8 °F 30.73 in North 4.0 mph 4.0 mph 58 % 0.00 in 42.0 W/m2 SCT
07:32 15.1 °F 3.0 °F 30.73 in NNW 1.6 mph 8.1 mph 58 % 0.00 in 37.0 W/m2 SCT
07:37 15.3 °F 2.8 °F 30.74 in NNW 2.1 mph 9.2 mph 57 % 0.00 in 46.0 W/m2 SCT
07:42 15.5 °F 3.0 °F 30.74 in North 1.9 mph 4.6 mph 57 % 0.00 in 47.0 W/m2 BKN
07:47 15.8 °F 2.9 °F 30.74 in NNW 6.4 mph 8.1 mph 56 % 0.00 in 105.0 W/m2 FEW
07:52 15.9 °F 2.6 °F 30.74 in North 5.1 mph 7.0 mph 55 % 0.00 in 123.0 W/m2 SCT
07:57 16.1 °F 2.7 °F 30.74 in NNW 6.0 mph 9.2 mph 55 % 0.00 in 134.0 W/m2 FEW
07:59 16.3 °F 2.9 °F 30.74 in NNW 4.2 mph 9.2 mph 55 % 0.00 in 109.0 W/m2 FEW
08:04 16.5 °F 2.7 °F 30.74 in North 6.1 mph 11.5 mph 54 % 0.00 in 83.0 W/m2 BKN
08:09 16.7 °F 2.5 °F 30.74 in NNW 4.0 mph 9.2 mph 53 % 0.00 in 111.0 W/m2 SCT
08:14 16.9 °F 2.7 °F 30.74 in NNW 0.5 mph 5.8 mph 53 % 0.00 in 179.0 W/m2 CLR
08:19 17.4 °F 2.8 °F 30.74 in NW 3.5 mph 8.1 mph 52 % 0.00 in 204.0 W/m2 CLR
08:24 17.7 °F 2.6 °F 30.74 in NW 3.9 mph 10.4 mph 51 % 0.00 in 260.0 W/m2 CLR
08:29 18.0 °F 2.5 °F 30.74 in NNW 3.4 mph 9.2 mph 50 % 0.00 in 378.0 W/m2 CLR
08:34 18.4 °F 2.8 °F 30.74 in North 4.7 mph 5.8 mph 50 % 0.00 in 397.0 W/m2 CLR
08:39 18.7 °F 2.7 °F 30.74 in NNW 1.7 mph 5.0 mph 49 % 0.00 in 418.0 W/m2 CLR
08:44 19.0 °F 2.5 °F 30.74 in NW 0.8 mph 4.6 mph 48 % 0.00 in 434.0 W/m2 CLR
08:49 19.5 °F 3.0 °F 30.74 in NNE 4.4 mph 11.5 mph 48 % 0.00 in 452.0 W/m2 CLR
08:54 20.0 °F 3.0 °F 30.74 in NW 3.1 mph 5.8 mph 47 % 0.00 in 468.0 W/m2 CLR
08:59 20.4 °F 3.3 °F 30.75 in WNW 2.2 mph 8.1 mph 47 % 0.00 in 483.0 W/m2 CLR
09:04 20.5 °F 3.0 °F 30.75 in NNW 2.8 mph 10.4 mph 46 % 0.00 in 497.0 W/m2 CLR
09:09 20.8 °F 2.8 °F 30.75 in NW 4.0 mph 9.0 mph 45 % 0.00 in 512.0 W/m2 CLR
09:14 21.1 °F 3.0 °F 30.75 in NNW 2.3 mph 5.0 mph 45 % 0.00 in 527.0 W/m2 CLR
09:20 21.5 °F 2.9 °F 30.75 in NW 8.3 mph 11.5 mph 44 % 0.00 in 541.0 W/m2 CLR
09:24 21.6 °F 2.5 °F 30.74 in NW 8.9 mph 11.5 mph 43 % 0.00 in 555.0 W/m2 CLR
09:29 22.0 °F 2.9 °F 30.74 in NW 6.0 mph 10.4 mph 43 % 0.00 in 568.0 W/m2 CLR
09:35 22.7 °F 3.5 °F 30.74 in NNW 7.7 mph 11.5 mph 43 % 0.00 in 584.0 W/m2 CLR
09:40 22.7 °F 2.5 °F 30.74 in North 5.5 mph 11.5 mph 41 % 0.00 in 594.0 W/m2 CLR
09:45 22.8 °F 3.1 °F 30.74 in North 6.1 mph 8.1 mph 42 % 0.00 in 608.0 W/m2 CLR
09:50 23.1 °F 3.4 °F 30.74 in North 6.1 mph 9.0 mph 42 % 0.00 in 621.0 W/m2 CLR
09:55 23.4 °F 2.6 °F 30.74 in NW 7.4 mph 12.7 mph 40 % 0.00 in 633.0 W/m2 CLR
10:00 23.8 °F 3.0 °F 30.74 in NW 4.1 mph 8.1 mph 40 % 0.00 in 642.0 W/m2 CLR
10:05 24.3 °F 3.4 °F 30.74 in North 2.3 mph 5.8 mph 40 % 0.00 in 652.0 W/m2 CLR
10:10 24.3 °F 2.3 °F 30.74 in NNW 2.4 mph 8.1 mph 38 % 0.00 in 663.0 W/m2 CLR
10:15 24.6 °F 2.6 °F 30.74 in NNE 2.9 mph 8.0 mph 38 % 0.00 in 673.0 W/m2 CLR
10:20 24.5 °F 1.9 °F 30.74 in Calm   10.0 mph 37 % 0.00 in 684.0 W/m2 CLR
10:25 24.3 °F 1.7 °F 30.74 in North 1.0 mph 7.0 mph 37 % 0.00 in 693.0 W/m2 CLR
10:30 24.3 °F 2.3 °F 30.73 in North 5.8 mph 10.4 mph 38 % 0.00 in 705.0 W/m2 CLR
10:35 25.1 °F 1.8 °F 30.73 in NNE 9.1 mph 11.5 mph 36 % 0.00 in 708.0 W/m2 CLR
10:40 25.5 °F 2.2 °F 30.73 in North 1.0 mph 12.0 mph 36 % 0.00 in 719.0 W/m2 CLR
10:45 26.4 °F 1.8 °F 30.72 in NW 8.3 mph 11.5 mph 34 % 0.00 in 728.0 W/m2 CLR
10:50 27.3 °F 3.2 °F 30.72 in NW 4.2 mph 5.0 mph 35 % 0.00 in 733.0 W/m2 CLR
10:55 27.6 °F 2.2 °F 30.71 in NNW 3.0 mph 12.0 mph 33 % 0.00 in 738.0 W/m2 CLR
11:00 27.6 °F 2.8 °F 30.71 in NNE 3.0 mph 4.6 mph 34 % 0.00 in 749.0 W/m2 CLR
11:05 27.8 °F 2.4 °F 30.70 in NW 1.5 mph 3.5 mph 33 % 0.00 in 751.0 W/m2 CLR
11:10 27.9 °F 3.1 °F 30.70 in North 2.0 mph 6.0 mph 34 % 0.00 in 758.0 W/m2 CLR
11:15 28.5 °F 2.3 °F 30.69 in North 7.9 mph 11.5 mph 32 % 0.00 in 761.0 W/m2 CLR
11:20 29.0 °F 2.1 °F 30.69 in North 4.7 mph 10.4 mph 31 % 0.00 in 768.0 W/m2 CLR
11:25 29.0 °F 2.8 °F 30.69 in North 4.4 mph 11.5 mph 32 % 0.00 in 777.0 W/m2 CLR
11:30 30.2 °F 3.1 °F 30.69 in North 5.6 mph 10.0 mph 31 % 0.00 in 772.0 W/m2 CLR
11:35 30.4 °F 1.9 °F 30.69 in North 8.0 mph 12.0 mph 29 % 0.00 in 777.0 W/m2 CLR
11:40 30.3 °F 2.5 °F 30.68 in North 5.0 mph 13.0 mph 30 % 0.00 in 775.0 W/m2 CLR
11:45 31.1 °F 1.7 °F 30.68 in North 8.1 mph 11.5 mph 28 % 0.00 in 780.0 W/m2 CLR
11:50 31.5 °F 2.1 °F 30.68 in NNW 6.1 mph 11.0 mph 28 % 0.00 in 789.0 W/m2 CLR
11:55 31.6 °F 2.9 °F 30.68 in NW 4.3 mph 9.2 mph 29 % 0.00 in 784.0 W/m2 CLR
12:00 31.4 °F 2.0 °F 30.68 in North 5.7 mph 9.2 mph 28 % 0.00 in 779.0 W/m2 CLR
12:05 31.4 °F 1.2 °F 30.68 in NNW 6.0 mph 8.1 mph 27 % 0.00 in 786.0 W/m2 CLR
12:10 32.3 °F 2.8 °F 30.67 in NW 3.3 mph 8.1 mph 28 % 0.00 in 782.0 W/m2 CLR
12:15 33.0 °F 1.8 °F 30.67 in WNW 2.8 mph 12.7 mph 26 % 0.00 in 782.0 W/m2 CLR
12:20 32.6 °F 0.6 °F 30.67 in NNE 5.7 mph 8.1 mph 25 % 0.00 in 784.0 W/m2 CLR
12:25 33.4 °F 2.1 °F 30.67 in NW 3.2 mph 11.5 mph 26 % 0.00 in 782.0 W/m2 CLR
12:30 33.0 °F 0.9 °F 30.67 in North 4.7 mph 8.1 mph 25 % 0.00 in 780.0 W/m2 CLR
12:35 32.8 °F 1.6 °F 30.67 in WNW 9.2 mph 16.1 mph 26 % 0.00 in 777.0 W/m2 CLR
12:40 33.8 °F 3.3 °F 30.67 in WNW 4.8 mph 11.5 mph 27 % 0.00 in 775.0 W/m2 CLR
12:45 33.5 °F 2.2 °F 30.66 in NNW 1.9 mph 3.5 mph 26 % 0.00 in 770.0 W/m2 CLR
12:50 32.9 °F 1.7 °F 30.66 in WNW 2.1 mph 4.6 mph 26 % 0.00 in 768.0 W/m2 CLR
12:55 34.1 °F 2.7 °F 30.66 in NNW 8.3 mph 12.7 mph 26 % 0.00 in 763.0 W/m2 CLR
13:00 34.2 °F 2.8 °F 30.65 in NNW 4.8 mph 10.4 mph 26 % 0.00 in 759.0 W/m2 CLR
13:05 34.4 °F 0.4 °F 30.65 in WNW 4.5 mph 11.5 mph 23 % 0.00 in 754.0 W/m2 CLR
13:10 34.2 °F 1.1 °F 30.64 in WNW 4.5 mph 9.0 mph 24 % 0.00 in 747.0 W/m2 CLR
13:15 34.6 °F -0.4 °F 30.64 in WNW 7.8 mph 11.5 mph 22 % 0.00 in 747.0 W/m2 CLR
13:20 34.0 °F 0.0 °F 30.63 in NNE 2.0 mph 3.5 mph 23 % 0.00 in 737.0 W/m2 CLR
13:25 34.3 °F 1.2 °F 30.63 in NNW 2.4 mph 6.9 mph 24 % 0.00 in 728.0 W/m2 CLR
13:30 34.8 °F 0.7 °F 30.62 in NNW 4.7 mph 5.8 mph 23 % 0.00 in 719.0 W/m2 CLR
13:35 35.0 °F 0.9 °F 30.62 in NW 6.4 mph 10.4 mph 23 % 0.00 in 715.0 W/m2 CLR
13:40 35.7 °F 1.5 °F 30.62 in WNW 7.9 mph 12.7 mph 23 % 0.00 in 708.0 W/m2 CLR
13:45 35.9 °F 0.7 °F 30.61 in NW 1.3 mph 4.0 mph 22 % 0.00 in 700.0 W/m2 CLR
13:50 36.2 °F -0.1 °F 30.61 in NNW 2.6 mph 4.6 mph 21 % 0.00 in 689.0 W/m2 CLR
13:55 36.4 °F 1.1 °F 30.61 in North 6.2 mph 10.4 mph 22 % 0.00 in 680.0 W/m2 CLR
14:00 36.6 °F 0.3 °F 30.60 in NW 4.7 mph 8.1 mph 21 % 0.00 in 670.0 W/m2 CLR
14:05 36.5 °F -0.9 °F 30.60 in NNW 5.6 mph 8.1 mph 20 % 0.00 in 663.0 W/m2 CLR
14:10 36.7 °F 2.3 °F 30.60 in WNW 6.5 mph 10.4 mph 23 % 0.00 in 647.0 W/m2 CLR
14:15 36.0 °F 0.8 °F 30.60 in NW 2.0 mph 3.5 mph 22 % 0.00 in 636.0 W/m2 CLR
14:20 37.0 °F 0.6 °F 30.59 in West 3.1 mph 6.0 mph 21 % 0.00 in 628.0 W/m2 CLR
14:21 37.0 °F 0.6 °F 30.59 in West 5.6 mph 11.5 mph 21 % 0.00 in 624.0 W/m2 CLR
14:26 36.6 °F 1.3 °F 30.59 in NNW 2.8 mph 5.8 mph 22 % 0.00 in 613.0 W/m2 CLR
14:31 37.1 °F 0.7 °F 30.59 in West 7.9 mph 10.4 mph 21 % 0.00 in 601.0 W/m2 CLR
14:36 36.5 °F -0.9 °F 30.58 in WNW 4.0 mph 11.5 mph 20 % 0.00 in 589.0 W/m2 CLR
14:41 36.6 °F 0.3 °F 30.58 in WNW 5.8 mph 10.4 mph 21 % 0.00 in 573.0 W/m2 CLR
14:46 37.3 °F 1.9 °F 30.58 in WNW 3.1 mph 8.1 mph 22 % 0.00 in 564.0 W/m2 CLR
14:51 37.3 °F 0.9 °F 30.57 in West 4.3 mph 8.1 mph 21 % 0.00 in 550.0 W/m2 CLR
14:56 37.4 °F 0.9 °F 30.57 in West 3.9 mph 8.1 mph 21 % 0.00 in 534.0 W/m2 CLR
15:01 37.2 °F 0.8 °F 30.57 in NW 5.0 mph 11.5 mph 21 % 0.00 in 520.0 W/m2 CLR
15:06 37.6 °F 1.1 °F 30.57 in WSW 2.8 mph 5.8 mph 21 % 0.00 in 508.0 W/m2 CLR
15:11 37.0 °F 0.6 °F 30.57 in NW 3.4 mph 9.2 mph 21 % 0.00 in 492.0 W/m2 CLR
15:16 37.5 °F 2.0 °F 30.57 in NW 4.2 mph 8.1 mph 22 % 0.00 in 476.0 W/m2 CLR
15:21 37.6 °F 2.1 °F 30.56 in NNW 2.6 mph 4.6 mph 22 % 0.00 in 459.0 W/m2 CLR
15:26 37.8 °F 1.3 °F 30.56 in West 3.2 mph 5.8 mph 21 % 0.00 in 446.0 W/m2 CLR
15:31 37.6 °F 1.1 °F 30.56 in West 2.6 mph 5.8 mph 21 % 0.00 in 429.0 W/m2 CLR
15:36 37.8 °F 1.3 °F 30.56 in West 2.3 mph 8.1 mph 21 % 0.00 in 413.0 W/m2 CLR
15:41 37.5 °F 1.0 °F 30.56 in NW 8.8 mph 12.7 mph 21 % 0.00 in 397.0 W/m2 CLR
15:46 37.7 °F 1.2 °F 30.56 in NW 6.9 mph 11.5 mph 21 % 0.00 in 381.0 W/m2 CLR
15:51 38.2 °F 2.6 °F 30.56 in NNW 7.0 mph 12.7 mph 22 % 0.00 in 364.0 W/m2 CLR
15:56 38.0 °F 0.4 °F 30.56 in WNW 4.4 mph 6.9 mph 20 % 0.00 in 346.0 W/m2 CLR
16:01 38.1 °F -0.6 °F 30.55 in WNW 5.2 mph 9.2 mph 19 % 0.00 in 330.0 W/m2 CLR
16:06 38.0 °F -0.7 °F 30.55 in West 6.9 mph 10.4 mph 19 % 0.00 in 315.0 W/m2 CLR
16:11 37.7 °F 0.2 °F 30.55 in NNW 7.0 mph 12.7 mph 20 % 0.00 in 295.0 W/m2 CLR
16:16 37.6 °F 0.1 °F 30.55 in NW 5.7 mph 9.2 mph 20 % 0.00 in 276.0 W/m2 CLR
16:21 37.4 °F -1.2 °F 30.55 in WNW 6.1 mph 8.1 mph 19 % 0.00 in 258.0 W/m2 CLR
16:26 37.3 °F -1.3 °F 30.55 in WNW 3.1 mph 6.9 mph 19 % 0.00 in 236.0 W/m2 CLR
16:31 37.4 °F -0.1 °F 30.55 in NNE 4.4 mph 6.9 mph 20 % 0.00 in 213.0 W/m2 CLR
16:36 37.0 °F -1.5 °F 30.55 in NNW 2.2 mph 5.8 mph 19 % 0.00 in 193.0 W/m2 CLR
16:41 36.9 °F -0.5 °F 30.55 in NW 5.7 mph 8.1 mph 20 % 0.00 in 169.0 W/m2 CLR
16:46 36.6 °F -0.8 °F 30.55 in WNW 2.4 mph 5.0 mph 20 % 0.00 in 148.0 W/m2 CLR
16:51 36.9 °F -1.6 °F 30.55 in West 5.2 mph 10.0 mph 19 % 0.00 in 128.0 W/m2 CLR
16:56 36.7 °F -1.8 °F 30.55 in West 6.7 mph 9.2 mph 19 % 0.00 in 111.0 W/m2 CLR
17:01 36.6 °F -0.8 °F 30.55 in West 2.0 mph 3.5 mph 20 % 0.00 in 91.0 W/m2 FEW
17:06 36.6 °F -0.8 °F 30.55 in West 1.9 mph 6.0 mph 20 % 0.00 in 76.0 W/m2 FEW
17:11 36.4 °F -0.9 °F 30.55 in WNW 3.5 mph 6.9 mph 20 % 0.00 in 58.0 W/m2 SCT
17:16 36.1 °F -1.2 °F 30.55 in WNW 3.7 mph 9.2 mph 20 % 0.00 in 42.0 W/m2 SCT
17:21 35.9 °F -0.3 °F 30.55 in WNW 1.6 mph 5.0 mph 21 % 0.00 in 28.0 W/m2 BKN
17:26 35.5 °F -1.7 °F 30.56 in WNW 0.9 mph 3.5 mph 20 % 0.00 in 23.0 W/m2 BKN
17:31 35.3 °F -1.9 °F 30.56 in NW 3.7 mph 6.9 mph 20 % 0.00 in 21.0 W/m2 BKN
17:36 35.0 °F -1.1 °F 30.56 in NW 2.3 mph 3.5 mph 21 % 0.00 in 19.0 W/m2 SCT
17:41 34.7 °F -0.3 °F 30.56 in NW 1.8 mph 3.5 mph 22 % 0.00 in 18.0 W/m2 FEW
17:46 34.4 °F 0.4 °F 30.55 in WNW 0.5 mph 2.3 mph 23 % 0.00 in 14.0 W/m2 CLR
17:48 34.2 °F 0.2 °F 30.56 in NW 2.3 mph 4.0 mph 23 % 0.00 in 12.0 W/m2 CLR
17:53 34.0 °F 0.0 °F 30.56 in NW 2.7 mph 3.5 mph 23 % 0.00 in 7.0 W/m2 CLR
17:58 33.7 °F 0.7 °F 30.56 in NW 0.5 mph 2.3 mph 24 % 0.00 in 5.0 W/m2 CLR
18:03 33.5 °F 0.5 °F 30.56 in NW 0.1 mph 2.3 mph 24 % 0.00 in 0.0 W/m2 CLR
18:08 33.3 °F 1.2 °F 30.56 in NW 0.5 mph 2.3 mph 25 % 0.00 in 0.0 W/m2 CLR
18:13 33.2 °F 1.1 °F 30.56 in Calm     25 % 0.00 in 0.0 W/m2 CLR
18:18 33.1 °F 1.0 °F 30.56 in NW 0.2 mph 2.3 mph 25 % 0.00 in 0.0 W/m2 CLR
18:23 32.8 °F 0.8 °F 30.56 in NW 0.3 mph 2.3 mph 25 % 0.00 in 0.0 W/m2 CLR
18:28 32.6 °F 1.4 °F 30.56 in Calm     26 % 0.00 in 0.0 W/m2 CLR
18:33 32.3 °F 2.0 °F 30.56 in Calm     27 % 0.00 in 0.0 W/m2 CLR
18:38 32.2 °F 1.9 °F 30.56 in Calm     27 % 0.00 in 0.0 W/m2 CLR
18:43 32.1 °F 1.8 °F 30.56 in Calm     27 % 0.00 in 0.0 W/m2 CLR
18:48 32.1 °F 1.8 °F 30.57 in Calm     27 % 0.00 in 0.0 W/m2 CLR
18:53 32.0 °F 1.7 °F 30.57 in Calm     27 % 0.00 in 0.0 W/m2 CLR
18:58 31.8 °F 1.6 °F 30.57 in Calm     27 % 0.00 in 0.0 W/m2 CLR
19:03 31.7 °F 1.5 °F 30.57 in Calm     27 % 0.00 in 0.0 W/m2 CLR
19:08 31.4 °F 2.0 °F 30.57 in Calm     28 % 0.00 in 0.0 W/m2 CLR
19:13 31.1 °F 1.7 °F 30.57 in Calm     28 % 0.00 in 0.0 W/m2 CLR
19:18 30.9 °F 2.3 °F 30.57 in Calm     29 % 0.00 in 0.0 W/m2 CLR
19:23 30.7 °F 4.3 °F 30.57 in Calm     32 % 0.00 in 0.0 W/m2 CLR
19:28 30.1 °F 5.1 °F 30.57 in Calm     34 % 0.00 in 0.0 W/m2 CLR
19:33 29.9 °F 4.2 °F 30.57 in Calm     33 % 0.00 in 0.0 W/m2 CLR
19:39 29.6 °F 4.6 °F 30.57 in Calm     34 % 0.00 in 0.0 W/m2 CLR
19:43 29.4 °F 5.1 °F 30.57 in Calm     35 % 0.00 in 0.0 W/m2 CLR
19:48 29.4 °F 6.3 °F 30.57 in Calm     37 % 0.00 in 0.0 W/m2 CLR
19:54 29.0 °F 5.9 °F 30.57 in Calm     37 % 0.00 in 0.0 W/m2 CLR
19:59 28.8 °F 6.3 °F 30.57 in Calm     38 % 0.00 in 0.0 W/m2 CLR
20:04 28.6 °F 6.2 °F 30.57 in Calm     38 % 0.00 in 0.0 W/m2 CLR
20:09 28.5 °F 5.5 °F 30.57 in Calm     37 % 0.00 in 0.0 W/m2 CLR
20:14 28.7 °F 5.7 °F 30.57 in Calm     37 % 0.00 in 0.0 W/m2 CLR
20:19 28.4 °F 7.1 °F 30.57 in Calm     40 % 0.00 in 0.0 W/m2 CLR
20:24 28.0 °F 6.2 °F 30.57 in Calm     39 % 0.00 in 0.0 W/m2 CLR
20:29 27.9 °F 6.7 °F 30.58 in Calm     40 % 0.00 in 0.0 W/m2 CLR
20:34 27.8 °F 7.1 °F 30.57 in Calm     41 % 0.00 in 0.0 W/m2 CLR
20:39 27.7 °F 7.0 °F 30.57 in Calm     41 % 0.00 in 0.0 W/m2 CLR
20:44 27.6 °F 7.5 °F 30.57 in Calm   1.2 mph 42 % 0.00 in 0.0 W/m2 CLR
20:49 27.3 °F 7.7 °F 30.57 in Calm     43 % 0.00 in 0.0 W/m2 CLR
20:54 27.1 °F 8.0 °F 30.57 in Calm     44 % 0.00 in 0.0 W/m2 CLR
20:59 27.2 °F 8.1 °F 30.57 in Calm     44 % 0.00 in 0.0 W/m2 CLR
21:04 27.1 °F 8.0 °F 30.57 in Calm     44 % 0.00 in 0.0 W/m2 CLR
21:09 27.0 °F 8.0 °F 30.57 in Calm     44 % 0.00 in 0.0 W/m2 CLR
21:14 27.0 °F 8.0 °F 30.57 in Calm     44 % 0.00 in 0.0 W/m2 CLR
21:19 27.0 °F 8.5 °F 30.57 in Calm     45 % 0.00 in 0.0 W/m2 CLR
21:24 26.8 °F 8.8 °F 30.57 in Calm     46 % 0.00 in 0.0 W/m2 CLR
21:29 26.7 °F 8.7 °F 30.57 in Calm     46 % 0.00 in 0.0 W/m2 CLR
21:34 26.7 °F 8.7 °F 30.57 in Calm     46 % 0.00 in 0.0 W/m2 CLR
21:39 26.7 °F 8.7 °F 30.57 in Calm     46 % 0.00 in 0.0 W/m2 CLR
21:44 26.5 °F 8.5 °F 30.57 in Calm     46 % 0.00 in 0.0 W/m2 CLR
21:49 26.1 °F 8.6 °F 30.57 in Calm     47 % 0.00 in 0.0 W/m2 CLR
21:54 26.1 °F 10.0 °F 30.58 in Calm     50 % 0.00 in 0.0 W/m2 CLR
21:59 25.8 °F 10.6 °F 30.57 in Calm     52 % 0.00 in 0.0 W/m2 CLR
22:04 25.6 °F 10.0 °F 30.58 in Calm     51 % 0.00 in 0.0 W/m2 CLR
22:09 25.5 °F 10.7 °F 30.57 in Calm     53 % 0.00 in 0.0 W/m2 CLR
22:14 25.4 °F 11.5 °F 30.58 in Calm     55 % 0.00 in 0.0 W/m2 CLR
22:19 25.1 °F 11.2 °F 30.58 in Calm     55 % 0.00 in 0.0 W/m2 CLR
22:24 25.0 °F 11.1 °F 30.58 in Calm     55 % 0.00 in 0.0 W/m2 CLR
22:29 25.0 °F 11.1 °F 30.57 in Calm     55 % 0.00 in 0.0 W/m2 CLR
22:34 25.1 °F 10.8 °F 30.58 in Calm     54 % 0.00 in 0.0 W/m2 CLR
22:39 25.0 °F 11.5 °F 30.58 in Calm     56 % 0.00 in 0.0 W/m2 CLR
22:44 24.9 °F 11.8 °F 30.58 in Calm     57 % 0.00 in 0.0 W/m2 CLR
22:49 24.9 °F 11.4 °F 30.58 in Calm     56 % 0.00 in 0.0 W/m2 CLR
22:54 25.0 °F 11.1 °F 30.58 in Calm     55 % 0.00 in 0.0 W/m2 CLR
22:59 24.7 °F 11.2 °F 30.58 in Calm     56 % 0.00 in 0.0 W/m2 CLR
23:04 24.4 °F 10.9 °F 30.58 in Calm     56 % 0.00 in 0.0 W/m2 CLR
23:09 24.2 °F 11.9 °F 30.58 in Calm     59 % 0.00 in 0.0 W/m2 CLR
23:14 24.2 °F 12.3 °F 30.58 in Calm     60 % 0.00 in 0.0 W/m2 CLR
23:19 23.8 °F 12.3 °F 30.57 in Calm     61 % 0.00 in 0.0 W/m2 CLR
23:24 23.7 °F 12.2 °F 30.57 in Calm     61 % 0.00 in 0.0 W/m2 CLR
23:29 23.5 °F 11.3 °F 30.57 in Calm     59 % 0.00 in 0.0 W/m2 CLR
23:34 23.5 °F 11.3 °F 30.56 in Calm     59 % 0.00 in 0.0 W/m2 CLR
23:39 23.7 °F 11.4 °F 30.56 in Calm     59 % 0.00 in 0.0 W/m2 CLR
23:44 23.8 °F 11.5 °F 30.56 in Calm     59 % 0.00 in 0.0 W/m2 CLR
23:49 23.7 °F 11.4 °F 30.56 in Calm     59 % 0.00 in 0.0 W/m2 CLR
23:54 23.4 °F 11.9 °F 30.55 in Calm     61 % 0.00 in 0.0 W/m2 CLR
23:59 23.2 °F 12.1 °F 30.55 in Calm     62 % 0.00 in 0.0 W/m2 CLR
Air Products Campus Weather
Compliments of Weather Underground - 3.5 mb